الصفحة الرئيسية
METAR-TAF:

METAR-TAF

مطار :

Narathiwat, تايلاند

دائرة عرض: 6-31-12N, خط طول: 101-44-36E, ارتفاع: 5 متر

مراقبة الطقس الحالي

تاريخ ووقت الإصدار 45 دقيقة قبل الساعة 05:00UTC
ريح 8 عقدة من الشرق, الاتجاه يتراوح بين الشمال الشرقي و الجنوب الشرقي
درجة الحرارة 32°درجة مئوية
الرطوبة 67%
ضغط 1011 hPa
الرؤية 10 كم أو أكثر
غيوم قليلة على ارتفاع 2200 قدم

METAR: VTSC 130500Z 08008KT 050V130 9999 FEW022 32/25 Q1011 NOSIG

زمن: 12:45 (05:45 UTC)

توقعات

تاريخ ووقت الإصدار 45 دقيقة قبل الساعة 05:00UTC
التوقعات صالحة من13 الساعة 06 UTC إلى 14 الساعة 06 UTC
ريح 8 عقدة من الشرق
الرؤية 10 كم أو أكثر
غيوم متفرقة على ارتفاع 2000 قدم
أصبح
من 13 الساعة 15 UTC إلى 13 الساعة 17 UTC
ريح 4 عقدة من الجنوب
أصبح
من 14 الساعة 03 UTC إلى 14 الساعة 05 UTC
ريح 8 عقدة من الشرق

TAF: VTSC 130500Z 1306/1406 10008KT 9999 SCT020 BECMG 1315/1317 19004KT BECMG 1403/1405 10008KT

أرصاد الطقس والتوقعات من أكثر من 4000 مطار (تقارير الطقس للمطار METAR والتنبؤ بالطقس بالمطارTAF).

المحطات المتاحة هي النقط الصفراء والحمراء على الخريطة.

حرك المؤشر فوق النقطة لمعرفة اسم المحطة.

ثم انقر لمعرفة أرصاد وتوقعات الطقس.

لتغيير الخارطة: اضغط على الأزرار الخضراء مع رمز الصليب الأسود للتكبير. على الزر الأخضر مع شرطة للتصغير، أو على الأسهم الخضراء للخرائط المجاورة.


METAR-TAF: